sensor_id;sensor_type;location;lat;lon;timestamp;P1;durP1;ratioP1;P2;durP2;ratioP2
41514;SDS011;27247;48.020;16.720;2024-01-30T00:00:49;35.03;;;15.93;;
41514;SDS011;27247;48.020;16.720;2024-01-30T00:04:59;33.13;;;15.20;;
41514;SDS011;27247;48.020;16.720;2024-01-30T00:09:10;37.60;;;16.70;;
41514;SDS011;27247;48.020;16.720;2024-01-30T00:13:21;37.63;;;17.65;;
41514;SDS011;27247;48.020;16.720;2024-01-30T00:17:31;37.92;;;15.65;;
41514;SDS011;27247;48.020;16.720;2024-01-30T00:21:41;34.20;;;15.53;;
41514;SDS011;27247;48.020;16.720;2024-01-30T00:25:52;37.15;;;16.27;;
41514;SDS011;27247;48.020;16.720;2024-01-30T00:30:02;29.17;;;14.90;;
41514;SDS011;27247;48.020;16.720;2024-01-30T00:34:13;39.83;;;16.75;;
41514;SDS011;27247;48.020;16.720;2024-01-30T00:38:23;37.33;;;15.63;;
41514;SDS011;27247;48.020;16.720;2024-01-30T00:42:33;33.43;;;15.03;;
41514;SDS011;27247;48.020;16.720;2024-01-30T00:46:44;31.70;;;14.90;;
41514;SDS011;27247;48.020;16.720;2024-01-30T00:50:54;34.75;;;16.05;;
41514;SDS011;27247;48.020;16.720;2024-01-30T00:55:05;31.98;;;16.15;;
41514;SDS011;27247;48.020;16.720;2024-01-30T00:59:15;46.22;;;16.90;;
41514;SDS011;27247;48.020;16.720;2024-01-30T01:03:25;35.73;;;16.80;;
41514;SDS011;27247;48.020;16.720;2024-01-30T01:07:36;34.80;;;16.35;;
41514;SDS011;27247;48.020;16.720;2024-01-30T01:11:46;32.67;;;15.70;;
41514;SDS011;27247;48.020;16.720;2024-01-30T01:15:56;34.37;;;16.63;;
41514;SDS011;27247;48.020;16.720;2024-01-30T01:20:07;30.40;;;16.17;;
41514;SDS011;27247;48.020;16.720;2024-01-30T01:24:18;31.33;;;16.17;;
41514;SDS011;27247;48.020;16.720;2024-01-30T01:28:28;40.53;;;17.33;;
41514;SDS011;27247;48.020;16.720;2024-01-30T01:32:39;34.55;;;16.10;;
41514;SDS011;27247;48.020;16.720;2024-01-30T01:36:54;42.00;;;17.33;;
41514;SDS011;27247;48.020;16.720;2024-01-30T01:41:05;37.30;;;17.73;;
41514;SDS011;27247;48.020;16.720;2024-01-30T01:45:15;31.73;;;17.08;;
41514;SDS011;27247;48.020;16.720;2024-01-30T01:49:26;38.47;;;18.17;;
41514;SDS011;27247;48.020;16.720;2024-01-30T01:53:37;47.08;;;19.88;;
41514;SDS011;27247;48.020;16.720;2024-01-30T01:57:48;42.72;;;18.70;;
41514;SDS011;27247;48.020;16.720;2024-01-30T02:01:58;42.63;;;17.75;;
41514;SDS011;27247;48.020;16.720;2024-01-30T02:06:12;39.83;;;17.45;;
41514;SDS011;27247;48.020;16.720;2024-01-30T02:10:24;42.13;;;18.88;;
41514;SDS011;27247;48.020;16.720;2024-01-30T02:14:43;46.75;;;19.77;;
41514;SDS011;27247;48.020;16.720;2024-01-30T02:18:57;37.65;;;18.83;;
41514;SDS011;27247;48.020;16.720;2024-01-30T02:23:07;39.20;;;17.83;;
41514;SDS011;27247;48.020;16.720;2024-01-30T02:27:20;42.92;;;18.63;;
41514;SDS011;27247;48.020;16.720;2024-01-30T02:31:30;43.57;;;19.27;;
41514;SDS011;27247;48.020;16.720;2024-01-30T02:35:40;43.33;;;18.65;;
41514;SDS011;27247;48.020;16.720;2024-01-30T02:39:50;43.35;;;19.60;;
41514;SDS011;27247;48.020;16.720;2024-01-30T02:44:01;36.42;;;18.92;;
41514;SDS011;27247;48.020;16.720;2024-01-30T02:48:12;47.70;;;21.00;;
41514;SDS011;27247;48.020;16.720;2024-01-30T02:52:23;50.63;;;22.07;;
41514;SDS011;27247;48.020;16.720;2024-01-30T02:56:33;42.70;;;19.27;;
41514;SDS011;27247;48.020;16.720;2024-01-30T03:00:43;46.57;;;20.50;;
41514;SDS011;27247;48.020;16.720;2024-01-30T03:04:54;47.08;;;19.90;;
41514;SDS011;27247;48.020;16.720;2024-01-30T03:09:04;48.50;;;20.57;;
41514;SDS011;27247;48.020;16.720;2024-01-30T03:13:14;42.35;;;20.40;;
41514;SDS011;27247;48.020;16.720;2024-01-30T03:17:25;36.45;;;18.67;;
41514;SDS011;27247;48.020;16.720;2024-01-30T03:21:35;48.58;;;20.98;;
41514;SDS011;27247;48.020;16.720;2024-01-30T03:25:46;42.90;;;20.30;;
41514;SDS011;27247;48.020;16.720;2024-01-30T03:29:56;38.57;;;19.33;;
41514;SDS011;27247;48.020;16.720;2024-01-30T03:34:06;45.27;;;18.97;;
41514;SDS011;27247;48.020;16.720;2024-01-30T03:38:16;40.20;;;19.33;;
41514;SDS011;27247;48.020;16.720;2024-01-30T03:42:27;41.37;;;17.87;;
41514;SDS011;27247;48.020;16.720;2024-01-30T03:46:37;46.17;;;21.50;;
41514;SDS011;27247;48.020;16.720;2024-01-30T03:50:47;53.03;;;21.33;;
41514;SDS011;27247;48.020;16.720;2024-01-30T03:54:58;43.95;;;20.25;;
41514;SDS011;27247;48.020;16.720;2024-01-30T03:59:08;44.67;;;21.07;;
41514;SDS011;27247;48.020;16.720;2024-01-30T04:03:18;41.72;;;18.48;;
41514;SDS011;27247;48.020;16.720;2024-01-30T04:07:29;49.35;;;19.77;;
41514;SDS011;27247;48.020;16.720;2024-01-30T04:11:39;43.05;;;20.60;;
41514;SDS011;27247;48.020;16.720;2024-01-30T04:15:49;43.22;;;20.67;;
41514;SDS011;27247;48.020;16.720;2024-01-30T04:20:00;49.90;;;21.33;;
41514;SDS011;27247;48.020;16.720;2024-01-30T04:24:10;45.35;;;20.10;;
41514;SDS011;27247;48.020;16.720;2024-01-30T04:28:20;48.35;;;21.08;;
41514;SDS011;27247;48.020;16.720;2024-01-30T04:32:31;52.63;;;19.60;;
41514;SDS011;27247;48.020;16.720;2024-01-30T04:36:43;41.72;;;19.55;;
41514;SDS011;27247;48.020;16.720;2024-01-30T04:40:55;41.85;;;19.52;;
41514;SDS011;27247;48.020;16.720;2024-01-30T04:45:05;51.33;;;22.27;;
41514;SDS011;27247;48.020;16.720;2024-01-30T04:49:16;45.95;;;19.70;;
41514;SDS011;27247;48.020;16.720;2024-01-30T04:53:27;49.90;;;21.05;;
41514;SDS011;27247;48.020;16.720;2024-01-30T04:57:37;44.97;;;19.33;;
41514;SDS011;27247;48.020;16.720;2024-01-30T05:01:47;47.20;;;20.02;;
41514;SDS011;27247;48.020;16.720;2024-01-30T05:05:58;42.70;;;19.35;;
41514;SDS011;27247;48.020;16.720;2024-01-30T05:10:08;38.70;;;18.30;;
41514;SDS011;27247;48.020;16.720;2024-01-30T05:14:19;45.10;;;18.17;;
41514;SDS011;27247;48.020;16.720;2024-01-30T05:18:29;45.80;;;20.73;;
41514;SDS011;27247;48.020;16.720;2024-01-30T05:22:39;50.20;;;20.10;;
41514;SDS011;27247;48.020;16.720;2024-01-30T05:26:54;47.78;;;19.55;;
41514;SDS011;27247;48.020;16.720;2024-01-30T05:31:05;51.60;;;22.15;;
41514;SDS011;27247;48.020;16.720;2024-01-30T05:35:15;49.83;;;20.90;;
41514;SDS011;27247;48.020;16.720;2024-01-30T05:39:26;47.75;;;19.10;;
41514;SDS011;27247;48.020;16.720;2024-01-30T05:43:36;43.97;;;18.90;;
41514;SDS011;27247;48.020;16.720;2024-01-30T05:47:46;52.85;;;20.88;;
41514;SDS011;27247;48.020;16.720;2024-01-30T05:51:57;55.58;;;20.85;;
41514;SDS011;27247;48.020;16.720;2024-01-30T05:56:07;41.67;;;18.57;;
41514;SDS011;27247;48.020;16.720;2024-01-30T06:00:18;44.37;;;17.87;;
41514;SDS011;27247;48.020;16.720;2024-01-30T06:04:28;45.05;;;19.42;;
41514;SDS011;27247;48.020;16.720;2024-01-30T06:08:38;40.33;;;18.67;;
41514;SDS011;27247;48.020;16.720;2024-01-30T06:12:49;47.23;;;21.73;;
41514;SDS011;27247;48.020;16.720;2024-01-30T06:16:59;49.10;;;20.35;;
41514;SDS011;27247;48.020;16.720;2024-01-30T06:21:09;42.83;;;18.23;;
41514;SDS011;27247;48.020;16.720;2024-01-30T06:25:20;49.90;;;20.23;;
41514;SDS011;27247;48.020;16.720;2024-01-30T06:29:30;48.23;;;20.53;;
41514;SDS011;27247;48.020;16.720;2024-01-30T06:33:40;50.97;;;20.97;;
41514;SDS011;27247;48.020;16.720;2024-01-30T06:37:52;46.05;;;18.15;;
41514;SDS011;27247;48.020;16.720;2024-01-30T06:42:02;48.57;;;18.17;;
41514;SDS011;27247;48.020;16.720;2024-01-30T06:46:13;45.00;;;18.50;;
41514;SDS011;27247;48.020;16.720;2024-01-30T06:50:25;42.58;;;17.88;;
41514;SDS011;27247;48.020;16.720;2024-01-30T06:54:35;36.25;;;17.30;;
41514;SDS011;27247;48.020;16.720;2024-01-30T06:58:47;42.03;;;19.35;;
41514;SDS011;27247;48.020;16.720;2024-01-30T07:02:58;45.17;;;18.20;;
41514;SDS011;27247;48.020;16.720;2024-01-30T07:07:08;39.40;;;18.17;;
41514;SDS011;27247;48.020;16.720;2024-01-30T07:11:22;45.05;;;17.33;;
41514;SDS011;27247;48.020;16.720;2024-01-30T07:15:33;36.35;;;17.23;;
41514;SDS011;27247;48.020;16.720;2024-01-30T07:19:44;44.58;;;18.48;;
41514;SDS011;27247;48.020;16.720;2024-01-30T07:23:54;41.00;;;17.73;;
41514;SDS011;27247;48.020;16.720;2024-01-30T07:28:05;40.80;;;18.70;;
41514;SDS011;27247;48.020;16.720;2024-01-30T07:32:16;38.05;;;18.38;;
41514;SDS011;27247;48.020;16.720;2024-01-30T07:36:26;43.33;;;18.67;;
41514;SDS011;27247;48.020;16.720;2024-01-30T07:40:37;41.13;;;18.00;;
41514;SDS011;27247;48.020;16.720;2024-01-30T07:44:47;38.17;;;18.35;;
41514;SDS011;27247;48.020;16.720;2024-01-30T07:48:58;45.55;;;19.08;;
41514;SDS011;27247;48.020;16.720;2024-01-30T07:53:08;41.70;;;19.25;;
41514;SDS011;27247;48.020;16.720;2024-01-30T07:57:19;43.20;;;17.60;;
41514;SDS011;27247;48.020;16.720;2024-01-30T08:01:29;40.37;;;17.30;;
41514;SDS011;27247;48.020;16.720;2024-01-30T08:05:39;39.15;;;16.67;;
41514;SDS011;27247;48.020;16.720;2024-01-30T08:09:50;40.50;;;17.95;;
41514;SDS011;27247;48.020;16.720;2024-01-30T08:14:00;37.20;;;17.08;;
41514;SDS011;27247;48.020;16.720;2024-01-30T08:18:10;37.65;;;17.55;;
41514;SDS011;27247;48.020;16.720;2024-01-30T08:22:21;35.70;;;16.42;;
41514;SDS011;27247;48.020;16.720;2024-01-30T08:26:31;43.97;;;19.13;;
41514;SDS011;27247;48.020;16.720;2024-01-30T08:30:42;42.28;;;18.05;;
41514;SDS011;27247;48.020;16.720;2024-01-30T08:34:52;35.63;;;18.33;;
41514;SDS011;27247;48.020;16.720;2024-01-30T08:39:02;35.28;;;17.27;;
41514;SDS011;27247;48.020;16.720;2024-01-30T08:43:13;40.30;;;17.35;;
41514;SDS011;27247;48.020;16.720;2024-01-30T08:47:23;35.50;;;16.65;;
41514;SDS011;27247;48.020;16.720;2024-01-30T08:51:35;38.50;;;17.42;;
41514;SDS011;27247;48.020;16.720;2024-01-30T08:55:45;33.53;;;16.17;;
41514;SDS011;27247;48.020;16.720;2024-01-30T08:59:56;31.60;;;15.25;;
41514;SDS011;27247;48.020;16.720;2024-01-30T09:04:06;37.88;;;16.98;;
41514;SDS011;27247;48.020;16.720;2024-01-30T09:08:17;36.17;;;16.15;;
41514;SDS011;27247;48.020;16.720;2024-01-30T09:12:27;33.37;;;16.57;;
41514;SDS011;27247;48.020;16.720;2024-01-30T09:16:37;39.07;;;16.40;;
41514;SDS011;27247;48.020;16.720;2024-01-30T09:20:48;44.83;;;17.35;;
41514;SDS011;27247;48.020;16.720;2024-01-30T09:24:58;33.58;;;16.75;;
41514;SDS011;27247;48.020;16.720;2024-01-30T09:29:09;35.05;;;16.10;;
41514;SDS011;27247;48.020;16.720;2024-01-30T09:33:19;37.33;;;16.33;;
41514;SDS011;27247;48.020;16.720;2024-01-30T09:37:30;35.95;;;17.10;;
41514;SDS011;27247;48.020;16.720;2024-01-30T09:41:45;39.47;;;18.00;;
41514;SDS011;27247;48.020;16.720;2024-01-30T09:46:00;36.03;;;15.63;;
41514;SDS011;27247;48.020;16.720;2024-01-30T09:50:13;33.58;;;15.27;;
41514;SDS011;27247;48.020;16.720;2024-01-30T09:54:24;30.42;;;15.52;;
41514;SDS011;27247;48.020;16.720;2024-01-30T09:58:35;30.27;;;16.63;;
41514;SDS011;27247;48.020;16.720;2024-01-30T10:02:45;40.10;;;15.67;;
41514;SDS011;27247;48.020;16.720;2024-01-30T10:06:55;32.53;;;16.38;;
41514;SDS011;27247;48.020;16.720;2024-01-30T10:11:08;36.58;;;16.23;;
41514;SDS011;27247;48.020;16.720;2024-01-30T10:15:19;33.45;;;15.70;;
41514;SDS011;27247;48.020;16.720;2024-01-30T10:19:29;29.08;;;14.80;;
41514;SDS011;27247;48.020;16.720;2024-01-30T10:23:39;30.08;;;14.23;;
41514;SDS011;27247;48.020;16.720;2024-01-30T10:27:53;31.63;;;14.05;;
41514;SDS011;27247;48.020;16.720;2024-01-30T10:32:08;34.60;;;14.50;;
41514;SDS011;27247;48.020;16.720;2024-01-30T10:36:19;30.27;;;15.35;;
41514;SDS011;27247;48.020;16.720;2024-01-30T10:40:38;34.55;;;15.18;;
41514;SDS011;27247;48.020;16.720;2024-01-30T10:49:18;33.65;;;14.73;;
41514;SDS011;27247;48.020;16.720;2024-01-30T10:53:31;33.88;;;14.63;;
41514;SDS011;27247;48.020;16.720;2024-01-30T10:57:42;30.48;;;14.00;;
41514;SDS011;27247;48.020;16.720;2024-01-30T11:01:53;33.60;;;14.93;;
41514;SDS011;27247;48.020;16.720;2024-01-30T11:06:03;29.33;;;15.27;;
41514;SDS011;27247;48.020;16.720;2024-01-30T11:10:14;28.00;;;15.50;;
41514;SDS011;27247;48.020;16.720;2024-01-30T11:14:25;29.73;;;15.32;;
41514;SDS011;27247;48.020;16.720;2024-01-30T11:18:36;32.28;;;15.52;;
41514;SDS011;27247;48.020;16.720;2024-01-30T11:22:47;28.50;;;14.70;;
41514;SDS011;27247;48.020;16.720;2024-01-30T11:27:01;32.75;;;14.30;;
41514;SDS011;27247;48.020;16.720;2024-01-30T11:31:13;29.33;;;14.25;;
41514;SDS011;27247;48.020;16.720;2024-01-30T11:35:28;24.42;;;13.50;;
41514;SDS011;27247;48.020;16.720;2024-01-30T11:39:42;29.90;;;14.38;;
41514;SDS011;27247;48.020;16.720;2024-01-30T11:43:53;22.10;;;12.68;;
41514;SDS011;27247;48.020;16.720;2024-01-30T11:48:03;26.50;;;14.05;;
41514;SDS011;27247;48.020;16.720;2024-01-30T11:52:14;23.95;;;12.68;;
41514;SDS011;27247;48.020;16.720;2024-01-30T11:56:24;20.57;;;11.63;;
41514;SDS011;27247;48.020;16.720;2024-01-30T12:00:36;27.40;;;12.77;;
41514;SDS011;27247;48.020;16.720;2024-01-30T12:04:47;23.53;;;11.57;;
41514;SDS011;27247;48.020;16.720;2024-01-30T12:08:58;27.60;;;13.10;;
41514;SDS011;27247;48.020;16.720;2024-01-30T12:13:09;23.33;;;12.60;;
41514;SDS011;27247;48.020;16.720;2024-01-30T12:17:23;22.83;;;11.75;;
41514;SDS011;27247;48.020;16.720;2024-01-30T12:21:41;25.77;;;12.57;;
41514;SDS011;27247;48.020;16.720;2024-01-30T12:25:51;19.70;;;11.80;;
41514;SDS011;27247;48.020;16.720;2024-01-30T12:30:05;24.77;;;12.52;;
41514;SDS011;27247;48.020;16.720;2024-01-30T12:34:17;27.92;;;13.38;;
41514;SDS011;27247;48.020;16.720;2024-01-30T12:38:27;24.98;;;12.15;;
41514;SDS011;27247;48.020;16.720;2024-01-30T12:42:38;22.17;;;12.25;;
41514;SDS011;27247;48.020;16.720;2024-01-30T12:46:48;26.35;;;11.90;;
41514;SDS011;27247;48.020;16.720;2024-01-30T12:50:58;21.50;;;12.00;;
41514;SDS011;27247;48.020;16.720;2024-01-30T12:55:09;25.90;;;11.68;;
41514;SDS011;27247;48.020;16.720;2024-01-30T12:59:19;23.08;;;11.98;;
41514;SDS011;27247;48.020;16.720;2024-01-30T13:03:30;21.77;;;11.87;;
41514;SDS011;27247;48.020;16.720;2024-01-30T13:07:40;20.57;;;10.77;;
41514;SDS011;27247;48.020;16.720;2024-01-30T13:11:50;22.10;;;12.03;;
41514;SDS011;27247;48.020;16.720;2024-01-30T13:16:01;21.52;;;11.15;;
41514;SDS011;27247;48.020;16.720;2024-01-30T13:20:11;22.20;;;12.00;;
41514;SDS011;27247;48.020;16.720;2024-01-30T13:24:22;21.67;;;11.55;;
41514;SDS011;27247;48.020;16.720;2024-01-30T13:28:32;22.20;;;11.27;;
41514;SDS011;27247;48.020;16.720;2024-01-30T13:32:43;23.10;;;12.35;;
41514;SDS011;27247;48.020;16.720;2024-01-30T13:36:54;22.88;;;11.60;;
41514;SDS011;27247;48.020;16.720;2024-01-30T13:41:04;21.92;;;12.07;;
41514;SDS011;27247;48.020;16.720;2024-01-30T13:45:14;21.35;;;11.18;;
41514;SDS011;27247;48.020;16.720;2024-01-30T13:49:25;18.70;;;10.93;;
41514;SDS011;27247;48.020;16.720;2024-01-30T13:53:35;15.33;;;9.00;;
41514;SDS011;27247;48.020;16.720;2024-01-30T13:57:45;18.50;;;9.97;;
41514;SDS011;27247;48.020;16.720;2024-01-30T14:01:56;20.67;;;10.18;;
41514;SDS011;27247;48.020;16.720;2024-01-30T14:06:06;22.63;;;11.23;;
41514;SDS011;27247;48.020;16.720;2024-01-30T14:10:16;23.15;;;11.07;;
41514;SDS011;27247;48.020;16.720;2024-01-30T14:14:27;20.35;;;9.55;;
41514;SDS011;27247;48.020;16.720;2024-01-30T14:18:37;19.90;;;9.75;;
41514;SDS011;27247;48.020;16.720;2024-01-30T14:22:47;22.60;;;10.37;;
41514;SDS011;27247;48.020;16.720;2024-01-30T14:26:58;16.67;;;8.80;;
41514;SDS011;27247;48.020;16.720;2024-01-30T14:31:09;18.38;;;10.40;;
41514;SDS011;27247;48.020;16.720;2024-01-30T14:35:20;14.15;;;8.40;;
41514;SDS011;27247;48.020;16.720;2024-01-30T14:39:30;18.52;;;9.30;;
41514;SDS011;27247;48.020;16.720;2024-01-30T14:43:40;14.00;;;8.32;;
41514;SDS011;27247;48.020;16.720;2024-01-30T14:47:51;15.02;;;8.82;;
41514;SDS011;27247;48.020;16.720;2024-01-30T14:52:02;16.02;;;8.20;;
41514;SDS011;27247;48.020;16.720;2024-01-30T14:56:14;17.02;;;8.40;;
41514;SDS011;27247;48.020;16.720;2024-01-30T15:00:24;17.15;;;9.27;;
41514;SDS011;27247;48.020;16.720;2024-01-30T15:04:35;13.02;;;7.80;;
41514;SDS011;27247;48.020;16.720;2024-01-30T15:08:45;16.20;;;8.47;;
41514;SDS011;27247;48.020;16.720;2024-01-30T15:12:55;15.15;;;7.50;;
41514;SDS011;27247;48.020;16.720;2024-01-30T15:17:06;20.17;;;9.32;;
41514;SDS011;27247;48.020;16.720;2024-01-30T15:21:16;17.33;;;8.77;;
41514;SDS011;27247;48.020;16.720;2024-01-30T15:25:30;25.55;;;9.10;;
41514;SDS011;27247;48.020;16.720;2024-01-30T15:29:40;18.17;;;8.77;;
41514;SDS011;27247;48.020;16.720;2024-01-30T15:33:51;15.97;;;9.37;;
41514;SDS011;27247;48.020;16.720;2024-01-30T15:38:01;18.23;;;9.18;;
41514;SDS011;27247;48.020;16.720;2024-01-30T15:42:13;19.27;;;9.88;;
41514;SDS011;27247;48.020;16.720;2024-01-30T15:46:23;16.83;;;9.50;;
41514;SDS011;27247;48.020;16.720;2024-01-30T15:50:34;18.70;;;10.13;;
41514;SDS011;27247;48.020;16.720;2024-01-30T15:54:44;22.50;;;10.33;;
41514;SDS011;27247;48.020;16.720;2024-01-30T15:58:55;20.92;;;10.05;;
41514;SDS011;27247;48.020;16.720;2024-01-30T16:03:06;19.95;;;10.90;;
41514;SDS011;27247;48.020;16.720;2024-01-30T16:07:17;21.38;;;10.48;;
41514;SDS011;27247;48.020;16.720;2024-01-30T16:11:27;18.80;;;11.23;;
41514;SDS011;27247;48.020;16.720;2024-01-30T16:15:38;22.83;;;11.52;;
41514;SDS011;27247;48.020;16.720;2024-01-30T16:19:49;20.65;;;11.02;;
41514;SDS011;27247;48.020;16.720;2024-01-30T16:24:00;26.08;;;12.15;;
41514;SDS011;27247;48.020;16.720;2024-01-30T16:28:10;24.93;;;12.37;;
41514;SDS011;27247;48.020;16.720;2024-01-30T16:32:20;21.23;;;12.47;;
41514;SDS011;27247;48.020;16.720;2024-01-30T16:36:31;32.22;;;13.18;;
41514;SDS011;27247;48.020;16.720;2024-01-30T16:40:41;25.85;;;12.90;;
41514;SDS011;27247;48.020;16.720;2024-01-30T16:44:51;22.40;;;12.77;;
41514;SDS011;27247;48.020;16.720;2024-01-30T16:49:02;28.57;;;14.13;;
41514;SDS011;27247;48.020;16.720;2024-01-30T16:53:12;31.17;;;14.33;;
41514;SDS011;27247;48.020;16.720;2024-01-30T16:57:22;29.97;;;14.73;;
41514;SDS011;27247;48.020;16.720;2024-01-30T17:01:33;27.55;;;14.05;;
41514;SDS011;27247;48.020;16.720;2024-01-30T17:05:43;28.27;;;14.43;;
41514;SDS011;27247;48.020;16.720;2024-01-30T17:09:53;31.05;;;14.80;;
41514;SDS011;27247;48.020;16.720;2024-01-30T17:14:06;33.13;;;16.50;;
41514;SDS011;27247;48.020;16.720;2024-01-30T17:18:16;27.95;;;14.25;;
41514;SDS011;27247;48.020;16.720;2024-01-30T17:22:28;28.35;;;14.10;;
41514;SDS011;27247;48.020;16.720;2024-01-30T17:26:40;30.02;;;13.63;;
41514;SDS011;27247;48.020;16.720;2024-01-30T17:30:50;29.73;;;14.88;;
41514;SDS011;27247;48.020;16.720;2024-01-30T17:35:00;31.38;;;16.90;;
41514;SDS011;27247;48.020;16.720;2024-01-30T17:39:11;29.33;;;14.23;;
41514;SDS011;27247;48.020;16.720;2024-01-30T17:43:21;31.90;;;15.10;;
41514;SDS011;27247;48.020;16.720;2024-01-30T17:47:32;30.70;;;15.50;;
41514;SDS011;27247;48.020;16.720;2024-01-30T17:51:42;28.17;;;14.63;;
41514;SDS011;27247;48.020;16.720;2024-01-30T17:55:52;29.05;;;14.93;;
41514;SDS011;27247;48.020;16.720;2024-01-30T18:00:03;35.87;;;15.03;;
41514;SDS011;27247;48.020;16.720;2024-01-30T18:04:16;30.75;;;15.20;;
41514;SDS011;27247;48.020;16.720;2024-01-30T18:08:27;32.75;;;15.18;;
41514;SDS011;27247;48.020;16.720;2024-01-30T18:12:38;29.77;;;14.32;;
41514;SDS011;27247;48.020;16.720;2024-01-30T18:16:48;30.88;;;15.35;;
41514;SDS011;27247;48.020;16.720;2024-01-30T18:20:59;31.38;;;15.95;;
41514;SDS011;27247;48.020;16.720;2024-01-30T18:25:09;31.05;;;15.25;;
41514;SDS011;27247;48.020;16.720;2024-01-30T18:29:20;28.92;;;14.80;;
41514;SDS011;27247;48.020;16.720;2024-01-30T18:33:30;36.53;;;16.10;;
41514;SDS011;27247;48.020;16.720;2024-01-30T18:37:40;26.45;;;14.60;;
41514;SDS011;27247;48.020;16.720;2024-01-30T18:41:51;34.17;;;16.10;;
41514;SDS011;27247;48.020;16.720;2024-01-30T18:46:01;30.50;;;15.57;;
41514;SDS011;27247;48.020;16.720;2024-01-30T18:50:12;29.42;;;14.70;;
41514;SDS011;27247;48.020;16.720;2024-01-30T18:54:23;31.90;;;15.07;;
41514;SDS011;27247;48.020;16.720;2024-01-30T18:58:33;35.15;;;15.57;;
41514;SDS011;27247;48.020;16.720;2024-01-30T19:02:45;30.25;;;14.43;;
41514;SDS011;27247;48.020;16.720;2024-01-30T19:06:56;33.20;;;16.60;;
41514;SDS011;27247;48.020;16.720;2024-01-30T19:11:16;29.05;;;15.27;;
41514;SDS011;27247;48.020;16.720;2024-01-30T19:15:28;32.65;;;15.35;;
41514;SDS011;27247;48.020;16.720;2024-01-30T19:19:39;26.48;;;14.40;;
41514;SDS011;27247;48.020;16.720;2024-01-30T19:23:51;29.92;;;14.35;;
41514;SDS011;27247;48.020;16.720;2024-01-30T19:28:03;35.00;;;17.23;;
41514;SDS011;27247;48.020;16.720;2024-01-30T19:32:14;30.77;;;14.98;;
41514;SDS011;27247;48.020;16.720;2024-01-30T19:36:26;30.73;;;15.27;;
41514;SDS011;27247;48.020;16.720;2024-01-30T19:40:37;34.55;;;16.10;;
41514;SDS011;27247;48.020;16.720;2024-01-30T19:44:48;34.58;;;15.80;;
41514;SDS011;27247;48.020;16.720;2024-01-30T19:48:59;30.88;;;16.88;;
41514;SDS011;27247;48.020;16.720;2024-01-30T19:53:10;31.67;;;16.48;;
41514;SDS011;27247;48.020;16.720;2024-01-30T19:57:21;33.67;;;16.30;;
41514;SDS011;27247;48.020;16.720;2024-01-30T20:01:31;34.72;;;16.23;;
41514;SDS011;27247;48.020;16.720;2024-01-30T20:05:44;36.20;;;16.83;;
41514;SDS011;27247;48.020;16.720;2024-01-30T20:09:54;35.53;;;16.45;;
41514;SDS011;27247;48.020;16.720;2024-01-30T20:14:05;36.05;;;16.88;;
41514;SDS011;27247;48.020;16.720;2024-01-30T20:18:16;36.17;;;16.73;;
41514;SDS011;27247;48.020;16.720;2024-01-30T20:22:27;34.63;;;16.30;;
41514;SDS011;27247;48.020;16.720;2024-01-30T20:26:37;30.27;;;15.25;;
41514;SDS011;27247;48.020;16.720;2024-01-30T20:30:48;40.08;;;16.23;;
41514;SDS011;27247;48.020;16.720;2024-01-30T20:35:00;32.33;;;16.45;;
41514;SDS011;27247;48.020;16.720;2024-01-30T20:39:12;36.58;;;17.13;;
41514;SDS011;27247;48.020;16.720;2024-01-30T20:43:23;32.47;;;17.02;;
41514;SDS011;27247;48.020;16.720;2024-01-30T20:47:34;33.80;;;17.70;;
41514;SDS011;27247;48.020;16.720;2024-01-30T20:51:46;36.20;;;17.05;;
41514;SDS011;27247;48.020;16.720;2024-01-30T20:55:56;39.90;;;19.15;;
41514;SDS011;27247;48.020;16.720;2024-01-30T21:00:07;39.00;;;18.30;;
41514;SDS011;27247;48.020;16.720;2024-01-30T21:04:20;36.00;;;18.05;;
41514;SDS011;27247;48.020;16.720;2024-01-30T21:08:30;37.80;;;17.45;;
41514;SDS011;27247;48.020;16.720;2024-01-30T21:12:41;40.20;;;17.63;;
41514;SDS011;27247;48.020;16.720;2024-01-30T21:16:51;36.67;;;17.83;;
41514;SDS011;27247;48.020;16.720;2024-01-30T21:21:01;41.57;;;19.47;;
41514;SDS011;27247;48.020;16.720;2024-01-30T21:25:12;42.85;;;19.38;;
41514;SDS011;27247;48.020;16.720;2024-01-30T21:29:23;39.45;;;21.20;;
41514;SDS011;27247;48.020;16.720;2024-01-30T21:33:33;43.33;;;21.13;;
41514;SDS011;27247;48.020;16.720;2024-01-30T21:37:43;46.53;;;21.30;;
41514;SDS011;27247;48.020;16.720;2024-01-30T21:41:54;40.08;;;19.45;;
41514;SDS011;27247;48.020;16.720;2024-01-30T21:46:04;49.00;;;21.83;;
41514;SDS011;27247;48.020;16.720;2024-01-30T21:50:17;42.03;;;20.25;;
41514;SDS011;27247;48.020;16.720;2024-01-30T21:54:30;44.92;;;22.08;;
41514;SDS011;27247;48.020;16.720;2024-01-30T21:58:41;47.33;;;22.20;;
41514;SDS011;27247;48.020;16.720;2024-01-30T22:02:51;47.70;;;21.70;;
41514;SDS011;27247;48.020;16.720;2024-01-30T22:07:01;45.90;;;21.83;;
41514;SDS011;27247;48.020;16.720;2024-01-30T22:11:12;50.70;;;22.88;;
41514;SDS011;27247;48.020;16.720;2024-01-30T22:15:22;58.17;;;23.17;;
41514;SDS011;27247;48.020;16.720;2024-01-30T22:19:33;49.63;;;22.85;;
41514;SDS011;27247;48.020;16.720;2024-01-30T22:23:43;49.03;;;22.57;;
41514;SDS011;27247;48.020;16.720;2024-01-30T22:27:54;52.45;;;24.45;;
41514;SDS011;27247;48.020;16.720;2024-01-30T22:32:04;42.77;;;22.50;;
41514;SDS011;27247;48.020;16.720;2024-01-30T22:36:16;51.53;;;23.67;;
41514;SDS011;27247;48.020;16.720;2024-01-30T22:40:26;49.30;;;24.87;;
41514;SDS011;27247;48.020;16.720;2024-01-30T22:44:37;47.90;;;25.17;;
41514;SDS011;27247;48.020;16.720;2024-01-30T22:48:47;49.73;;;24.90;;
41514;SDS011;27247;48.020;16.720;2024-01-30T22:52:57;50.67;;;24.02;;
41514;SDS011;27247;48.020;16.720;2024-01-30T22:57:08;55.23;;;24.17;;
41514;SDS011;27247;48.020;16.720;2024-01-30T23:01:18;47.87;;;23.80;;
41514;SDS011;27247;48.020;16.720;2024-01-30T23:05:28;52.95;;;23.80;;
41514;SDS011;27247;48.020;16.720;2024-01-30T23:09:40;51.25;;;25.33;;
41514;SDS011;27247;48.020;16.720;2024-01-30T23:13:50;48.73;;;22.83;;
41514;SDS011;27247;48.020;16.720;2024-01-30T23:18:00;42.70;;;24.23;;
41514;SDS011;27247;48.020;16.720;2024-01-30T23:22:11;49.85;;;24.85;;
41514;SDS011;27247;48.020;16.720;2024-01-30T23:26:21;53.85;;;25.98;;
41514;SDS011;27247;48.020;16.720;2024-01-30T23:30:32;51.78;;;24.33;;
41514;SDS011;27247;48.020;16.720;2024-01-30T23:34:42;50.53;;;23.93;;
41514;SDS011;27247;48.020;16.720;2024-01-30T23:38:52;52.00;;;26.40;;
41514;SDS011;27247;48.020;16.720;2024-01-30T23:43:03;51.27;;;23.73;;
41514;SDS011;27247;48.020;16.720;2024-01-30T23:47:13;55.70;;;24.48;;
41514;SDS011;27247;48.020;16.720;2024-01-30T23:51:23;52.13;;;24.37;;
41514;SDS011;27247;48.020;16.720;2024-01-30T23:55:33;51.97;;;25.60;;
41514;SDS011;27247;48.020;16.720;2024-01-30T23:59:44;51.67;;;24.50;;
